createdAt,value
2015-12-18T00:00:06.448Z,74239
2015-12-18T00:00:18.823Z,74239
2015-12-18T00:00:31.229Z,74240
2015-12-18T00:00:43.620Z,74239
2015-12-18T00:00:56.013Z,74237
2015-12-18T00:01:08.403Z,74226
2015-12-18T00:01:20.763Z,74232
2015-12-18T00:01:33.122Z,74240
2015-12-18T00:01:45.466Z,74245
2015-12-18T00:01:57.827Z,74244
2015-12-18T00:02:10.187Z,74242
2015-12-18T00:02:22.546Z,74236
2015-12-18T00:02:34.937Z,74236
2015-12-18T00:02:47.296Z,74242
2015-12-18T00:02:59.675Z,74244
2015-12-18T00:03:12.019Z,74239
2015-12-18T00:03:24.378Z,74236
2015-12-18T00:03:36.737Z,74236
2015-12-18T00:03:49.112Z,74235
2015-12-18T00:04:01.489Z,74244
2015-12-18T00:04:13.864Z,74243
2015-12-18T00:04:26.224Z,74246
2015-12-18T00:04:38.599Z,74244
2015-12-18T00:04:50.989Z,74245
2015-12-18T00:05:03.367Z,74232
2015-12-18T00:05:15.758Z,74225
2015-12-18T00:05:27.430Z,74236
2015-12-18T00:05:39.836Z,74243
2015-12-18T00:05:52.211Z,74245
2015-12-18T00:06:04.636Z,74240
2015-12-18T00:06:16.980Z,74242
2015-12-18T00:06:29.339Z,74237
2015-12-18T00:06:41.714Z,74241
2015-12-18T00:06:54.058Z,74243
2015-12-18T00:07:06.436Z,74244
2015-12-18T00:07:18.795Z,74240
2015-12-18T00:07:31.155Z,74235
2015-12-18T00:07:43.530Z,74241
2015-12-18T00:07:55.889Z,74244
2015-12-18T00:08:08.235Z,74244
2015-12-18T00:08:20.610Z,74245
2015-12-18T00:08:32.969Z,74239
2015-12-18T00:08:45.329Z,74227
2015-12-18T00:08:57.704Z,74240
2015-12-18T00:09:10.082Z,74240
2015-12-18T00:09:22.457Z,74244
2015-12-18T00:09:34.832Z,74238
2015-12-18T00:09:47.222Z,74237
2015-12-18T00:09:59.597Z,74237
2015-12-18T00:10:11.991Z,74243
2015-12-18T00:10:24.397Z,74242
2015-12-18T00:10:36.772Z,74235
2015-12-18T00:10:49.163Z,74237
2015-12-18T00:11:01.585Z,74236
2015-12-18T00:11:13.947Z,74238
2015-12-18T00:11:26.306Z,74238
2015-12-18T00:11:38.650Z,74236
2015-12-18T00:11:50.994Z,74234
2015-12-18T00:12:03.369Z,74240
2015-12-18T00:12:15.730Z,74233
2015-12-18T00:12:28.074Z,74234
2015-12-18T00:12:40.433Z,74238
2015-12-18T00:12:52.793Z,74236
2015-12-18T00:13:05.152Z,74236
2015-12-18T00:13:17.499Z,74233
2015-12-18T00:13:29.858Z,74237
2015-12-18T00:13:42.218Z,74232
2015-12-18T00:13:54.577Z,74232
2015-12-18T00:14:06.952Z,74239
2015-12-18T00:14:19.330Z,74240
2015-12-18T00:14:31.705Z,74237
2015-12-18T00:14:44.111Z,74234
2015-12-18T00:14:56.486Z,74227
2015-12-18T00:15:08.877Z,74227
2015-12-18T00:15:21.270Z,74227
2015-12-18T00:15:33.661Z,74229
2015-12-18T00:15:46.067Z,74235
2015-12-18T00:15:58.474Z,74226
2015-12-18T00:16:10.833Z,74228
2015-12-18T00:16:23.179Z,74228
2015-12-18T00:16:35.538Z,74228
2015-12-18T00:16:47.897Z,74234
2015-12-18T00:17:00.257Z,74237
2015-12-18T00:17:12.632Z,74227
2015-12-18T00:17:24.979Z,74228
2015-12-18T00:17:37.338Z,74228
2015-12-18T00:17:49.697Z,74227
2015-12-18T00:18:02.041Z,74221
2015-12-18T00:18:14.385Z,74227
2015-12-18T00:18:26.747Z,74218
2015-12-18T00:18:39.107Z,74224
2015-12-18T00:18:51.482Z,74229
2015-12-18T00:19:03.841Z,74229
2015-12-18T00:19:16.216Z,74224
2015-12-18T00:19:28.594Z,74221
2015-12-18T00:19:40.969Z,74224
2015-12-18T00:19:52.641Z,74225
2015-12-18T00:20:05.031Z,74227
2015-12-18T00:20:16.719Z,74223
2015-12-18T00:20:29.112Z,74225
2015-12-18T00:20:41.502Z,74229
2015-12-18T00:20:53.877Z,74225
2015-12-18T00:21:06.221Z,74213
2015-12-18T00:21:18.580Z,74224
2015-12-18T00:21:30.927Z,74229
2015-12-18T00:21:43.286Z,74227
2015-12-18T00:21:55.646Z,74226
2015-12-18T00:22:08.021Z,74226
2015-12-18T00:22:20.365Z,74226
2015-12-18T00:22:32.727Z,74225
2015-12-18T00:22:45.071Z,74228
2015-12-18T00:22:57.430Z,74226
2015-12-18T00:23:09.805Z,74224
2015-12-18T00:23:22.149Z,74230
2015-12-18T00:23:34.511Z,74227
2015-12-18T00:23:46.871Z,74228
2015-12-18T00:23:59.230Z,74215
2015-12-18T00:24:11.605Z,74223
2015-12-18T00:24:23.980Z,74228
2015-12-18T00:24:36.357Z,74228
2015-12-18T00:24:48.748Z,74232
2015-12-18T00:25:01.138Z,74231
2015-12-18T00:25:13.529Z,74222
2015-12-18T00:25:25.919Z,74224
2015-12-18T00:25:38.283Z,74230
2015-12-18T00:25:50.658Z,74224
2015-12-18T00:26:03.017Z,74228
2015-12-18T00:26:15.205Z,74220
2015-12-18T00:26:27.564Z,74228
2015-12-18T00:26:39.910Z,74227
2015-12-18T00:26:52.269Z,74229
2015-12-18T00:27:04.472Z,74231
2015-12-18T00:27:16.832Z,74223
2015-12-18T00:27:29.191Z,74224
2015-12-18T00:27:41.569Z,74224
2015-12-18T00:27:53.210Z,74220
2015-12-18T00:28:05.569Z,74227
2015-12-18T00:28:17.928Z,74223
2015-12-18T00:28:30.303Z,74220
2015-12-18T00:28:42.681Z,74223
2015-12-18T00:28:55.041Z,74224
2015-12-18T00:29:07.416Z,74227
2015-12-18T00:29:19.806Z,74225
2015-12-18T00:29:32.197Z,74219
2015-12-18T00:29:44.590Z,74216
2015-12-18T00:29:56.996Z,74222
2015-12-18T00:30:09.402Z,74225
2015-12-18T00:30:21.777Z,74224
2015-12-18T00:30:34.171Z,74220
2015-12-18T00:30:46.530Z,74221
2015-12-18T00:30:58.890Z,74226
2015-12-18T00:31:11.249Z,74225
2015-12-18T00:31:23.593Z,74218
2015-12-18T00:31:35.971Z,74219
2015-12-18T00:31:48.330Z,74224
2015-12-18T00:32:00.674Z,74224
2015-12-18T00:32:13.049Z,74227
2015-12-18T00:32:25.408Z,74226
2015-12-18T00:32:37.771Z,74221
2015-12-18T00:32:50.130Z,74226
2015-12-18T00:33:01.771Z,74223
2015-12-18T00:33:14.130Z,74222
2015-12-18T00:33:26.505Z,74222
2015-12-18T00:33:38.882Z,74226
2015-12-18T00:33:51.257Z,74227
2015-12-18T00:34:03.632Z,74221
2015-12-18T00:34:16.023Z,74220
2015-12-18T00:34:28.398Z,74210
2015-12-18T00:34:40.791Z,74221
2015-12-18T00:34:53.213Z,74226
2015-12-18T00:35:05.588Z,74228
2015-12-18T00:35:17.979Z,74227
2015-12-18T00:35:30.385Z,74226
2015-12-18T00:35:42.747Z,74223
2015-12-18T00:35:55.107Z,74223
2015-12-18T00:36:07.466Z,74231
2015-12-18T00:36:19.810Z,74231
2015-12-18T00:36:32.185Z,74226
2015-12-18T00:36:44.546Z,74227
2015-12-18T00:36:56.906Z,74228
2015-12-18T00:37:09.265Z,74227
2015-12-18T00:37:21.640Z,74230
2015-12-18T00:37:33.999Z,74229
2015-12-18T00:37:46.362Z,74225
2015-12-18T00:37:58.705Z,74224
2015-12-18T00:38:11.080Z,74219
2015-12-18T00:38:23.455Z,74226
2015-12-18T00:38:35.830Z,74227
2015-12-18T00:38:48.207Z,74224
2015-12-18T00:39:00.582Z,74226
2015-12-18T00:39:12.973Z,74219
2015-12-18T00:39:25.364Z,74223
2015-12-18T00:39:37.773Z,74223
2015-12-18T00:39:50.179Z,74219
2015-12-18T00:40:01.851Z,74225
2015-12-18T00:40:14.257Z,74218
2015-12-18T00:40:26.617Z,74225
2015-12-18T00:40:38.979Z,74227
2015-12-18T00:40:51.354Z,74226
2015-12-18T00:41:03.698Z,74217
2015-12-18T00:41:16.073Z,74220
2015-12-18T00:41:28.432Z,74224
2015-12-18T00:41:40.794Z,74219
2015-12-18T00:41:53.153Z,74223
2015-12-18T00:42:05.528Z,74223
2015-12-18T00:42:17.887Z,74220
2015-12-18T00:42:30.247Z,74216
2015-12-18T00:42:42.609Z,74220
2015-12-18T00:42:54.281Z,74220
2015-12-18T00:43:06.656Z,74223
2015-12-18T00:43:19.031Z,74225
2015-12-18T00:43:31.422Z,74229
2015-12-18T00:43:43.800Z,74227
2015-12-18T00:43:56.175Z,74226
2015-12-18T00:44:08.581Z,74225
2015-12-18T00:44:20.815Z,74222
2015-12-18T00:44:33.206Z,74222
2015-12-18T00:44:45.599Z,74226
2015-12-18T00:44:57.974Z,74224
2015-12-18T00:45:10.365Z,74221
2015-12-18T00:45:22.709Z,74227
2015-12-18T00:45:35.084Z,74228
2015-12-18T00:45:47.430Z,74227
2015-12-18T00:45:59.789Z,74227
2015-12-18T00:46:12.148Z,74222
2015-12-18T00:46:24.508Z,74222
2015-12-18T00:46:36.867Z,74220
2015-12-18T00:46:49.229Z,74217
2015-12-18T00:47:01.589Z,74225
2015-12-18T00:47:13.948Z,74225
2015-12-18T00:47:26.308Z,74227
2015-12-18T00:47:38.933Z,74221
2015-12-18T00:47:51.326Z,74226
2015-12-18T00:48:03.686Z,74222
2015-12-18T00:48:16.061Z,74228
2015-12-18T00:48:28.420Z,74228
2015-12-18T00:48:40.811Z,74224
2015-12-18T00:48:53.204Z,74222
2015-12-18T00:49:05.610Z,74223
2015-12-18T00:49:18.001Z,74226
2015-12-18T00:49:30.376Z,74226
2015-12-18T00:49:42.751Z,74230
2015-12-18T00:49:54.410Z,74226
2015-12-18T00:50:06.770Z,74220
2015-12-18T00:50:19.129Z,74227
2015-12-18T00:50:31.473Z,74224
2015-12-18T00:50:43.832Z,74228
2015-12-18T00:50:56.194Z,74226
2015-12-18T00:51:08.553Z,74231
2015-12-18T00:51:20.912Z,74229
2015-12-18T00:51:33.272Z,74232
2015-12-18T00:51:45.647Z,74227
2015-12-18T00:51:58.010Z,74225
2015-12-18T00:52:10.369Z,74224
2015-12-18T00:52:22.729Z,74221
2015-12-18T00:52:35.088Z,74225
2015-12-18T00:52:47.307Z,74226
2015-12-18T00:52:59.684Z,74229
2015-12-18T00:53:12.059Z,74227
2015-12-18T00:53:24.434Z,74227
2015-12-18T00:53:36.825Z,74234
2015-12-18T00:53:49.200Z,74230
2015-12-18T00:54:01.593Z,74229
2015-12-18T00:54:13.984Z,74228
2015-12-18T00:54:26.390Z,74227
2015-12-18T00:54:38.765Z,74228
2015-12-18T00:54:51.156Z,74231
2015-12-18T00:55:03.565Z,74231
2015-12-18T00:55:15.940Z,74229
2015-12-18T00:55:28.284Z,74227
2015-12-18T00:55:40.909Z,74233
2015-12-18T00:55:53.268Z,74235
2015-12-18T00:56:05.646Z,74231
2015-12-18T00:56:17.849Z,74235
2015-12-18T00:56:30.209Z,74233
2015-12-18T00:56:42.568Z,74230
2015-12-18T00:56:54.974Z,74229
2015-12-18T00:57:07.336Z,74225
2015-12-18T00:57:19.695Z,74230
2015-12-18T00:57:32.054Z,74229
2015-12-18T00:57:44.414Z,74231
2015-12-18T00:57:56.789Z,74238
2015-12-18T00:58:09.245Z,74236
2015-12-18T00:58:21.620Z,74230
2015-12-18T00:58:33.995Z,74231
2015-12-18T00:58:46.385Z,74235
2015-12-18T00:58:58.776Z,74232
2015-12-18T00:59:11.170Z,74236
2015-12-18T00:59:23.545Z,74236
2015-12-18T00:59:35.951Z,74234
2015-12-18T00:59:48.310Z,74231
2015-12-18T01:00:00.670Z,74235
2015-12-18T01:00:13.031Z,74233
2015-12-18T01:00:25.422Z,74232
2015-12-18T01:00:37.828Z,74234
2015-12-18T01:00:50.187Z,74234
2015-12-18T01:01:02.547Z,74239
2015-12-18T01:01:14.910Z,74242
2015-12-18T01:01:27.269Z,74241
2015-12-18T01:01:39.629Z,74237
2015-12-18T01:01:51.988Z,74235
2015-12-18T01:02:04.348Z,74237
2015-12-18T01:02:16.709Z,74229
2015-12-18T01:02:29.068Z,74228
2015-12-18T01:02:40.725Z,74237
2015-12-18T01:02:53.084Z,74236
2015-12-18T01:03:05.443Z,74236
2015-12-18T01:03:17.806Z,74233
2015-12-18T01:03:30.181Z,74236
2015-12-18T01:03:42.540Z,74231
2015-12-18T01:03:54.915Z,74240
2015-12-18T01:04:07.290Z,74242
2015-12-18T01:04:19.684Z,74238
2015-12-18T01:04:32.074Z,74235
2015-12-18T01:04:44.496Z,74241
2015-12-18T01:04:56.856Z,74241
2015-12-18T01:05:09.215Z,74243
2015-12-18T01:05:21.561Z,74242
2015-12-18T01:05:33.920Z,74242
2015-12-18T01:05:46.295Z,74237
2015-12-18T01:05:58.639Z,74238
2015-12-18T01:06:10.998Z,74239
2015-12-18T01:06:23.361Z,74242
2015-12-18T01:06:35.736Z,74247
2015-12-18T01:06:48.095Z,74245
2015-12-18T01:07:00.454Z,74239
2015-12-18T01:07:12.814Z,74232
2015-12-18T01:07:25.176Z,74231
2015-12-18T01:07:37.551Z,74236
2015-12-18T01:07:49.910Z,74233
2015-12-18T01:08:02.285Z,74240
2015-12-18T01:08:14.645Z,74238
2015-12-18T01:08:26.882Z,74232
2015-12-18T01:08:39.273Z,74238
2015-12-18T01:08:51.663Z,74238
2015-12-18T01:09:04.054Z,74234
2015-12-18T01:09:16.445Z,74241
2015-12-18T01:09:28.837Z,74244
2015-12-18T01:09:40.494Z,74242
2015-12-18T01:09:52.853Z,74231
2015-12-18T01:10:05.197Z,74229
2015-12-18T01:10:16.853Z,74228
2015-12-18T01:10:29.231Z,74239
2015-12-18T01:10:41.590Z,74239
2015-12-18T01:10:53.950Z,74237
2015-12-18T01:11:06.309Z,74242
2015-12-18T01:11:18.684Z,74241
2015-12-18T01:11:31.031Z,74232
2015-12-18T01:11:43.390Z,74229
2015-12-18T01:11:55.750Z,74235
2015-12-18T01:12:08.125Z,74239
2015-12-18T01:12:20.500Z,74235
2015-12-18T01:12:32.862Z,74234
2015-12-18T01:12:45.237Z,74238
2015-12-18T01:12:57.628Z,74235
2015-12-18T01:13:10.018Z,74232
2015-12-18T01:13:22.393Z,74232
2015-12-18T01:13:34.801Z,74236
2015-12-18T01:13:47.192Z,74241
2015-12-18T01:13:59.567Z,74243
2015-12-18T01:14:11.926Z,74243
2015-12-18T01:14:23.567Z,74239
2015-12-18T01:14:35.914Z,74238
2015-12-18T01:14:48.273Z,74240
2015-12-18T01:15:00.648Z,74237
2015-12-18T01:15:13.008Z,74236
2015-12-18T01:15:25.367Z,74223
2015-12-18T01:15:37.745Z,74235
2015-12-18T01:15:50.120Z,74232
2015-12-18T01:16:02.479Z,74244
2015-12-18T01:16:14.839Z,74246
2015-12-18T01:16:27.198Z,74246
2015-12-18T01:16:39.576Z,74240
2015-12-18T01:16:51.951Z,74230
2015-12-18T01:17:04.326Z,74231
2015-12-18T01:17:16.701Z,74230
2015-12-18T01:17:29.076Z,74235
2015-12-18T01:17:41.484Z,74239
2015-12-18T01:17:53.875Z,74237
2015-12-18T01:18:06.266Z,74236
2015-12-18T01:18:18.641Z,74235
2015-12-18T01:18:31.049Z,74234
2015-12-18T01:18:43.439Z,74226
2015-12-18T01:18:55.830Z,74227
2015-12-18T01:19:08.221Z,74242
2015-12-18T01:19:20.580Z,74243
2015-12-18T01:19:32.942Z,74238
2015-12-18T01:19:45.302Z,74240
2015-12-18T01:19:57.661Z,74238
2015-12-18T01:20:10.021Z,74237
2015-12-18T01:20:22.380Z,74238
2015-12-18T01:20:34.743Z,74237
2015-12-18T01:20:47.103Z,74234
2015-12-18T01:20:59.462Z,74236
2015-12-18T01:21:11.821Z,74240
2015-12-18T01:21:24.165Z,74237
2015-12-18T01:21:36.542Z,74237
2015-12-18T01:21:48.902Z,74236
2015-12-18T01:22:10.339Z,74234
2015-12-18T01:22:22.730Z,74227
2015-12-18T01:22:35.089Z,74222
2015-12-18T01:22:47.467Z,74225
2015-12-18T01:22:59.842Z,74236
2015-12-18T01:23:12.233Z,74237
2015-12-18T01:23:24.608Z,74240
2015-12-18T01:23:36.998Z,74238
2015-12-18T01:23:49.422Z,74233
2015-12-18T01:24:01.625Z,74236
2015-12-18T01:24:13.985Z,74242
2015-12-18T01:24:26.344Z,74233
2015-12-18T01:24:38.688Z,74238
2015-12-18T01:24:51.067Z,74244
2015-12-18T01:25:03.426Z,74238
2015-12-18T01:25:15.786Z,74236
2015-12-18T01:25:28.145Z,74237
2015-12-18T01:25:40.520Z,74243
2015-12-18T01:25:52.881Z,74238
2015-12-18T01:26:05.241Z,74232
2015-12-18T01:26:17.600Z,74233
2015-12-18T01:26:29.959Z,74232
2015-12-18T01:26:42.334Z,74233
2015-12-18T01:26:54.697Z,74233
2015-12-18T01:27:06.400Z,74236
2015-12-18T01:27:18.775Z,74243
2015-12-18T01:27:31.155Z,74246
2015-12-18T01:27:43.530Z,74242
2015-12-18T01:27:55.939Z,74227
2015-12-18T01:28:08.314Z,74236
2015-12-18T01:28:20.720Z,74236
2015-12-18T01:28:32.986Z,74244
2015-12-18T01:28:45.330Z,74238
2015-12-18T01:28:57.692Z,74232
2015-12-18T01:29:10.051Z,74236
2015-12-18T01:29:22.411Z,74242
2015-12-18T01:29:34.755Z,74237
2015-12-18T01:29:47.130Z,74235
2015-12-18T01:29:59.491Z,74229
2015-12-18T01:30:11.850Z,74234
2015-12-18T01:30:24.210Z,74242
2015-12-18T01:30:36.569Z,74244
2015-12-18T01:30:48.928Z,74237
2015-12-18T01:31:01.291Z,74234
2015-12-18T01:31:13.650Z,74233
2015-12-18T01:31:26.010Z,74235
2015-12-18T01:31:38.385Z,74239
2015-12-18T01:31:50.760Z,74242
2015-12-18T01:32:03.138Z,74236
2015-12-18T01:32:15.513Z,74233
2015-12-18T01:32:27.903Z,74234
2015-12-18T01:32:40.294Z,74229
2015-12-18T01:32:52.684Z,74232
2015-12-18T01:33:05.077Z,74243
2015-12-18T01:33:17.280Z,74243
2015-12-18T01:33:29.624Z,74238
2015-12-18T01:33:41.983Z,74236
2015-12-18T01:33:54.343Z,74236
2015-12-18T01:34:06.706Z,74241
2015-12-18T01:34:19.065Z,74244
2015-12-18T01:34:31.425Z,74239
2015-12-18T01:34:43.784Z,74235
2015-12-18T01:34:56.159Z,74238
2015-12-18T01:35:08.536Z,74233
2015-12-18T01:35:20.896Z,74245
2015-12-18T01:35:33.271Z,74243
2015-12-18T01:35:45.661Z,74235
2015-12-18T01:35:58.036Z,74229
2015-12-18T01:36:10.430Z,74240
2015-12-18T01:36:22.820Z,74231
2015-12-18T01:36:35.227Z,74238
2015-12-18T01:36:47.633Z,74230
2015-12-18T01:37:00.008Z,74233
2015-12-18T01:37:12.401Z,74240
2015-12-18T01:37:24.744Z,74233
2015-12-18T01:37:37.104Z,74219
2015-12-18T01:37:49.447Z,74231
2015-12-18T01:38:01.807Z,74235
2015-12-18T01:38:14.170Z,74234
2015-12-18T01:38:26.530Z,74237
2015-12-18T01:38:38.873Z,74235
2015-12-18T01:38:51.233Z,74231
2015-12-18T01:39:03.592Z,74237
2015-12-18T01:39:15.954Z,74238
2015-12-18T01:39:28.314Z,74238
2015-12-18T01:39:40.673Z,74233
2015-12-18T01:39:53.064Z,74236
2015-12-18T01:40:05.423Z,74231
2015-12-18T01:40:17.800Z,74232
2015-12-18T01:40:30.175Z,74232
2015-12-18T01:40:42.566Z,74241
2015-12-18T01:40:54.941Z,74235
2015-12-18T01:41:07.347Z,74231
2015-12-18T01:41:19.725Z,74220
2015-12-18T01:41:32.131Z,74216
2015-12-18T01:41:44.491Z,74224
2015-12-18T01:41:56.850Z,74226
2015-12-18T01:42:09.209Z,74229
2015-12-18T01:42:21.571Z,74228
2015-12-18T01:42:33.915Z,74229
2015-12-18T01:42:46.290Z,74231
2015-12-18T01:42:58.649Z,74240
2015-12-18T01:43:11.008Z,74231
2015-12-18T01:43:23.386Z,74230
2015-12-18T01:43:35.027Z,74220
2015-12-18T01:43:47.386Z,74217
2015-12-18T01:43:59.746Z,74222
2015-12-18T01:44:12.121Z,74227
2015-12-18T01:44:24.483Z,74228
2015-12-18T01:44:36.858Z,74228
2015-12-18T01:44:49.233Z,74236
2015-12-18T01:45:01.608Z,74230
2015-12-18T01:45:13.999Z,74228
2015-12-18T01:45:26.486Z,74226
2015-12-18T01:45:38.158Z,74227
2015-12-18T01:45:50.580Z,74226
2015-12-18T01:46:02.939Z,74237
2015-12-18T01:46:15.299Z,74235
2015-12-18T01:46:27.645Z,74233
2015-12-18T01:46:40.005Z,74235
2015-12-18T01:46:52.364Z,74235
2015-12-18T01:47:04.723Z,74240
2015-12-18T01:47:17.083Z,74241
2015-12-18T01:47:29.445Z,74238
2015-12-18T01:47:41.805Z,74231
2015-12-18T01:47:54.164Z,74228
2015-12-18T01:48:06.523Z,74235
2015-12-18T01:48:18.883Z,74230
2015-12-18T01:48:31.260Z,74230
2015-12-18T01:48:43.619Z,74230
2015-12-18T01:48:55.978Z,74234
2015-12-18T01:49:08.353Z,74225
2015-12-18T01:49:20.728Z,74229
2015-12-18T01:49:32.403Z,74231
2015-12-18T01:49:44.794Z,74233
2015-12-18T01:49:57.169Z,74235
2015-12-18T01:50:09.591Z,74230
2015-12-18T01:50:21.966Z,74221
2015-12-18T01:50:34.344Z,74220
2015-12-18T01:50:46.766Z,74232
2015-12-18T01:50:59.109Z,74241
2015-12-18T01:51:11.469Z,74238
2015-12-18T01:51:23.828Z,74236
2015-12-18T01:51:36.190Z,74230
2015-12-18T01:51:48.565Z,74221
2015-12-18T01:52:00.908Z,74221
2015-12-18T01:52:13.268Z,74228
2015-12-18T01:52:25.611Z,74222
2015-12-18T01:52:37.974Z,74222
2015-12-18T01:52:50.333Z,74229
2015-12-18T01:53:02.693Z,74229
2015-12-18T01:53:15.052Z,74224
2015-12-18T01:53:27.414Z,74226
2015-12-18T01:53:39.774Z,74231
2015-12-18T01:53:52.149Z,74229
2015-12-18T01:54:04.524Z,74225
2015-12-18T01:54:16.899Z,74225
2015-12-18T01:54:29.277Z,74228
2015-12-18T01:54:41.667Z,74238
2015-12-18T01:54:54.058Z,74229
2015-12-18T01:55:06.433Z,74227
2015-12-18T01:55:18.839Z,74219
2015-12-18T01:55:31.217Z,74226
2015-12-18T01:55:43.577Z,74230
2015-12-18T01:55:55.952Z,74236
2015-12-18T01:56:08.295Z,74234
2015-12-18T01:56:20.655Z,74231
2015-12-18T01:56:33.000Z,74229
2015-12-18T01:56:45.360Z,74228
2015-12-18T01:56:57.735Z,74228
2015-12-18T01:57:10.094Z,74229
2015-12-18T01:57:22.454Z,74231
2015-12-18T01:57:34.112Z,74229
2015-12-18T01:57:46.471Z,74224
2015-12-18T01:57:58.831Z,74221
2015-12-18T01:58:11.206Z,74223
2015-12-18T01:58:23.581Z,74219
2015-12-18T01:58:35.959Z,74221
2015-12-18T01:58:48.334Z,74221
2015-12-18T01:59:00.724Z,74222
2015-12-18T01:59:13.115Z,74229
2015-12-18T01:59:25.490Z,74228
2015-12-18T01:59:37.165Z,74227
2015-12-18T01:59:49.555Z,74225
2015-12-18T02:00:01.930Z,74222
2015-12-18T02:00:14.321Z,74225
2015-12-18T02:00:26.712Z,74230
2015-12-18T02:00:39.074Z,74231
2015-12-18T02:00:51.449Z,74233
2015-12-18T02:01:03.808Z,74228
2015-12-18T02:01:16.168Z,74234
2015-12-18T02:01:28.511Z,74229
2015-12-18T02:01:40.873Z,74228
2015-12-18T02:01:53.232Z,74225
2015-12-18T02:02:05.592Z,74236
2015-12-18T02:02:17.935Z,74239
2015-12-18T02:02:30.295Z,74240
2015-12-18T02:02:42.658Z,74233
2015-12-18T02:02:55.002Z,74229
2015-12-18T02:03:07.361Z,74230
2015-12-18T02:03:19.721Z,74227
2015-12-18T02:03:32.096Z,74231
2015-12-18T02:03:44.473Z,74227
2015-12-18T02:03:56.848Z,74228
2015-12-18T02:04:09.238Z,74216
2015-12-18T02:04:21.629Z,74221
2015-12-18T02:04:34.019Z,74230
2015-12-18T02:04:46.429Z,74229
2015-12-18T02:04:58.804Z,74225
2015-12-18T02:05:11.210Z,74232
2015-12-18T02:05:23.585Z,74229
2015-12-18T02:05:35.976Z,74236
2015-12-18T02:05:48.338Z,74230
2015-12-18T02:06:00.697Z,74229
2015-12-18T02:06:13.057Z,74225
2015-12-18T02:06:25.416Z,74222
2015-12-18T02:06:37.775Z,74225
2015-12-18T02:06:50.137Z,74229
2015-12-18T02:07:02.496Z,74230
2015-12-18T02:07:14.856Z,74225
2015-12-18T02:07:27.215Z,74226
2015-12-18T02:07:39.559Z,74230
2015-12-18T02:07:51.921Z,74227
2015-12-18T02:08:04.280Z,74222
2015-12-18T02:08:16.640Z,74231
2015-12-18T02:08:28.859Z,74227
2015-12-18T02:08:41.237Z,74226
2015-12-18T02:08:52.908Z,74235
2015-12-18T02:09:05.362Z,74237
2015-12-18T02:09:17.752Z,74231
2015-12-18T02:09:30.143Z,74227
2015-12-18T02:09:42.520Z,74233
2015-12-18T02:09:54.223Z,74235
2015-12-18T02:10:06.614Z,74236
2015-12-18T02:10:19.004Z,74230
2015-12-18T02:10:31.410Z,74234
2015-12-18T02:10:43.773Z,74239
2015-12-18T02:10:56.132Z,74237
2015-12-18T02:11:07.773Z,74236
2015-12-18T02:11:20.132Z,74234
2015-12-18T02:11:32.492Z,74233
2015-12-18T02:11:44.838Z,74228
2015-12-18T02:11:57.198Z,74234
2015-12-18T02:12:08.838Z,74236
2015-12-18T02:12:21.213Z,74233
2015-12-18T02:12:33.573Z,74229
2015-12-18T02:12:45.935Z,74229
2015-12-18T02:12:58.294Z,74235
2015-12-18T02:13:10.669Z,74237
2015-12-18T02:13:23.029Z,74231
2015-12-18T02:13:35.404Z,74226
2015-12-18T02:13:47.766Z,74227
2015-12-18T02:14:00.157Z,74232
2015-12-18T02:14:12.547Z,74232
2015-12-18T02:14:24.938Z,74234
2015-12-18T02:14:37.329Z,74231
2015-12-18T02:14:49.707Z,74222
2015-12-18T02:15:02.097Z,74221
2015-12-18T02:15:14.488Z,74228
2015-12-18T02:15:26.879Z,74223
2015-12-18T02:15:39.222Z,74228
2015-12-18T02:15:51.584Z,74224
2015-12-18T02:16:03.943Z,74229
2015-12-18T02:16:16.287Z,74228
2015-12-18T02:16:28.646Z,74223
2015-12-18T02:16:41.006Z,74228
2015-12-18T02:16:53.367Z,74226
2015-12-18T02:17:05.711Z,74225
2015-12-18T02:17:18.086Z,74234
2015-12-18T02:17:30.429Z,74226
2015-12-18T02:17:42.789Z,74227
2015-12-18T02:17:55.151Z,74230
2015-12-18T02:18:07.511Z,74224
2015-12-18T02:18:19.886Z,74220
2015-12-18T02:18:32.261Z,74218
2015-12-18T02:18:44.636Z,74220
2015-12-18T02:18:57.015Z,74223
2015-12-18T02:19:09.405Z,74217
2015-12-18T02:19:21.780Z,74219
2015-12-18T02:19:34.171Z,74223
2015-12-18T02:19:46.561Z,74220
2015-12-18T02:19:58.954Z,74221
2015-12-18T02:20:11.329Z,74222
2015-12-18T02:20:23.720Z,74222
2015-12-18T02:20:36.079Z,74224
2015-12-18T02:20:48.438Z,74225
2015-12-18T02:21:00.816Z,74225
2015-12-18T02:21:13.176Z,74223
2015-12-18T02:21:25.535Z,74229
2015-12-18T02:21:37.895Z,74227
2015-12-18T02:21:50.254Z,74224
2015-12-18T02:22:02.616Z,74227
2015-12-18T02:22:14.976Z,74224
2015-12-18T02:22:27.335Z,74229
2015-12-18T02:22:39.679Z,74227
2015-12-18T02:22:52.038Z,74229
2015-12-18T02:23:04.401Z,74226
2015-12-18T02:23:16.776Z,74226
2015-12-18T02:23:29.151Z,74223
2015-12-18T02:23:41.526Z,74222
2015-12-18T02:23:53.901Z,74226
2015-12-18T02:24:06.309Z,74230
2015-12-18T02:24:19.297Z,74226
2015-12-18T02:24:31.547Z,74226
2015-12-18T02:24:43.276Z,74222
2015-12-18T02:24:55.682Z,74227
2015-12-18T02:25:08.090Z,74226
2015-12-18T02:25:20.517Z,74227
2015-12-18T02:25:33.408Z,74226
2015-12-18T02:25:45.923Z,74225
2015-12-18T02:25:58.361Z,74221
2015-12-18T02:26:10.786Z,74216
2015-12-18T02:26:23.176Z,74218
2015-12-18T02:26:37.337Z,74229
2015-12-18T02:26:51.337Z,74229
2015-12-18T02:27:04.290Z,74221
2015-12-18T02:27:16.965Z,74218
2015-12-18T02:27:31.965Z,74208
2015-12-18T02:27:48.153Z,74216
2015-12-18T02:28:02.090Z,74218
2015-12-18T02:28:15.500Z,74221
2015-12-18T02:28:28.421Z,74223
2015-12-18T02:28:41.875Z,74216
2015-12-18T02:28:54.453Z,74218
2015-12-18T02:29:07.187Z,74211
2015-12-18T02:29:19.658Z,74209
2015-12-18T02:29:32.158Z,74227
2015-12-18T02:29:44.595Z,74227
2015-12-18T02:29:57.048Z,74226
2015-12-18T02:30:10.048Z,74227
2015-12-18T02:30:22.411Z,74217
2015-12-18T02:30:34.770Z,74215
2015-12-18T02:30:47.145Z,74217
2015-12-18T02:30:59.520Z,74221
2015-12-18T02:31:11.880Z,74217
2015-12-18T02:31:24.242Z,74218
2015-12-18T02:31:36.445Z,74215
2015-12-18T02:31:48.804Z,74212
2015-12-18T02:32:01.148Z,74215
2015-12-18T02:32:13.664Z,74217
2015-12-18T02:32:26.027Z,74218
2015-12-18T02:32:38.386Z,74219
2015-12-18T02:32:50.808Z,74220
2015-12-18T02:33:03.168Z,74216
2015-12-18T02:33:15.558Z,74217
2015-12-18T02:33:27.936Z,74219
2015-12-18T02:33:40.358Z,74219
2015-12-18T02:33:52.749Z,74226
2015-12-18T02:34:05.264Z,74221
2015-12-18T02:34:17.671Z,74222
2015-12-18T02:34:30.110Z,74226
2015-12-18T02:34:42.595Z,74222
2015-12-18T02:34:55.001Z,74226
2015-12-18T02:35:07.360Z,74228
2015-12-18T02:35:19.735Z,74228
2015-12-18T02:35:32.113Z,74227
2015-12-18T02:35:44.473Z,74223
2015-12-18T02:35:56.832Z,74225
2015-12-18T02:36:09.191Z,74223
2015-12-18T02:36:21.566Z,74220
2015-12-18T02:36:33.999Z,74224
2015-12-18T02:36:46.405Z,74222
2015-12-18T02:36:58.764Z,74223
2015-12-18T02:37:11.124Z,74222
2015-12-18T02:37:23.483Z,74218
2015-12-18T02:37:35.188Z,74217
2015-12-18T02:37:47.578Z,74211
2015-12-18T02:37:59.953Z,74215
2015-12-18T02:38:12.344Z,74222
2015-12-18T02:38:24.719Z,74224
2015-12-18T02:38:37.097Z,74224
2015-12-18T02:38:49.487Z,74223
2015-12-18T02:39:01.894Z,74223
2015-12-18T02:39:14.284Z,74224
2015-12-18T02:39:26.646Z,74227